sensor_id;sensor_type;location;lat;lon;timestamp;pressure;altitude;pressure_sealevel;temperature;humidity
44127;BME280;29786;50.798;7.302;2023-03-03T00:01:27;99700;;;2.78;100
44127;BME280;29786;50.798;7.302;2023-03-03T00:07:38;99710;;;2.49;100
44127;BME280;29786;50.798;7.302;2023-03-03T00:12:35;99720;;;1.97;100
44127;BME280;29786;50.798;7.302;2023-03-03T00:17:32;99710;;;1.89;100
44127;BME280;29786;50.798;7.302;2023-03-03T00:22:29;99720;;;1.74;100
44127;BME280;29786;50.798;7.302;2023-03-03T00:28:42;99720;;;2.14;100
44127;BME280;29786;50.798;7.302;2023-03-03T00:33:38;99720;;;2.02;100
44127;BME280;29786;50.798;7.302;2023-03-03T00:38:31;99730;;;2.06;100
44127;BME280;29786;50.798;7.302;2023-03-03T00:43:32;99720;;;1.71;100
44127;BME280;29786;50.798;7.302;2023-03-03T00:49:39;99720;;;1.94;100
44127;BME280;29786;50.798;7.302;2023-03-03T00:54:35;99720;;;2.08;100
44127;BME280;29786;50.798;7.302;2023-03-03T00:59:32;99730;;;1.93;100
44127;BME280;29786;50.798;7.302;2023-03-03T01:04:28;99720;;;1.43;100
44127;BME280;29786;50.798;7.302;2023-03-03T01:10:41;99720;;;1.02;100
44127;BME280;29786;50.798;7.302;2023-03-03T01:15:36;99720;;;1.19;100
44127;BME280;29786;50.798;7.302;2023-03-03T01:20:32;99720;;;1.41;100
44127;BME280;29786;50.798;7.302;2023-03-03T01:25:28;99720;;;0.99;100
44127;BME280;29786;50.798;7.302;2023-03-03T01:31:39;99720;;;0.52;100
44127;BME280;29786;50.798;7.302;2023-03-03T01:36:36;99730;;;0.61;100
44127;BME280;29786;50.798;7.302;2023-03-03T01:41:32;99710;;;0.14;100
44127;BME280;29786;50.798;7.302;2023-03-03T01:46:30;99730;;;0.05;100
44127;BME280;29786;50.798;7.302;2023-03-03T01:51:28;99730;;;0.09;100
44127;BME280;29786;50.798;7.302;2023-03-03T01:57:37;99740;;;-0.08;100
44127;BME280;29786;50.798;7.302;2023-03-03T02:02:33;99710;;;-0.37;100
44127;BME280;29786;50.798;7.302;2023-03-03T02:07:29;99720;;;-0.25;100
44127;BME280;29786;50.798;7.302;2023-03-03T02:12:29;99710;;;-0.19;100
44127;BME280;29786;50.798;7.302;2023-03-03T02:18:36;99720;;;0.01;100
44127;BME280;29786;50.798;7.302;2023-03-03T02:24:40;99700;;;-0.19;100
44127;BME280;29786;50.798;7.302;2023-03-03T02:28:30;99720;;;-0.28;100
44127;BME280;29786;50.798;7.302;2023-03-03T02:33:26;99730;;;-0.6;100
44127;BME280;29786;50.798;7.302;2023-03-03T02:39:36;99740;;;-0.82;100
44127;BME280;29786;50.798;7.302;2023-03-03T02:49:31;99750;;;-0.95;100
44127;BME280;29786;50.798;7.302;2023-03-03T02:54:27;99750;;;-0.93;100
44127;BME280;29786;50.798;7.302;2023-03-03T03:00:37;99750;;;-0.64;100
44127;BME280;29786;50.798;7.302;2023-03-03T03:05:33;99760;;;-0.92;100
44127;BME280;29786;50.798;7.302;2023-03-03T03:10:30;99760;;;-0.9;100
44127;BME280;29786;50.798;7.302;2023-03-03T03:15:26;99770;;;-0.72;100
44127;BME280;29786;50.798;7.302;2023-03-03T03:21:37;99770;;;-0.71;100
44127;BME280;29786;50.798;7.302;2023-03-03T03:26:34;99770;;;-0.71;100
44127;BME280;29786;50.798;7.302;2023-03-03T03:31:30;99770;;;-1.02;100
44127;BME280;29786;50.798;7.302;2023-03-03T03:36:27;99760;;;-0.97;100
44127;BME280;29786;50.798;7.302;2023-03-03T03:42:37;99760;;;-0.94;100
44127;BME280;29786;50.798;7.302;2023-03-03T03:47:34;99760;;;-0.9;100
44127;BME280;29786;50.798;7.302;2023-03-03T03:52:30;99760;;;-0.39;100
44127;BME280;29786;50.798;7.302;2023-03-03T03:57:27;99770;;;-0.2;100
44127;BME280;29786;50.798;7.302;2023-03-03T04:03:37;99790;;;-0.86;100
44127;BME280;29786;50.798;7.302;2023-03-03T04:08:34;99780;;;-1.25;100
44127;BME280;29786;50.798;7.302;2023-03-03T04:13:31;99790;;;-1.49;100
44127;BME280;29786;50.798;7.302;2023-03-03T04:18:27;99790;;;-1.19;100
44127;BME280;29786;50.798;7.302;2023-03-03T04:24:38;99780;;;-1.35;100
44127;BME280;29786;50.798;7.302;2023-03-03T04:29:34;99780;;;-1.22;100
44127;BME280;29786;50.798;7.302;2023-03-03T04:34:31;99780;;;-1.58;100
44127;BME280;29786;50.798;7.302;2023-03-03T04:39:27;99790;;;-1.41;100
44127;BME280;29786;50.798;7.302;2023-03-03T04:45:38;99780;;;-1.94;100
44127;BME280;29786;50.798;7.302;2023-03-03T04:50:35;99790;;;-2;100
44127;BME280;29786;50.798;7.302;2023-03-03T04:55:31;99810;;;-2.04;100
44127;BME280;29786;50.798;7.302;2023-03-03T05:00:28;99800;;;-2.02;100
44127;BME280;29786;50.798;7.302;2023-03-03T05:06:38;99800;;;-1.98;100
44127;BME280;29786;50.798;7.302;2023-03-03T05:11:35;99800;;;-2.07;100
44127;BME280;29786;50.798;7.302;2023-03-03T05:16:31;99820;;;-2.14;100
44127;BME280;29786;50.798;7.302;2023-03-03T05:21:28;99810;;;-2.44;100
44127;BME280;29786;50.798;7.302;2023-03-03T05:27:39;99830;;;-2.35;100
44127;BME280;29786;50.798;7.302;2023-03-03T05:32:35;99830;;;-2.49;100
44127;BME280;29786;50.798;7.302;2023-03-03T05:37:32;99850;;;-2.5;100
44127;BME280;29786;50.798;7.302;2023-03-03T05:42:28;99840;;;-2.59;100
44127;BME280;29786;50.798;7.302;2023-03-03T05:48:39;99840;;;-2.61;100
44127;BME280;29786;50.798;7.302;2023-03-03T05:53:35;99840;;;-2.65;100
44127;BME280;29786;50.798;7.302;2023-03-03T05:58:32;99840;;;-2.45;100
44127;BME280;29786;50.798;7.302;2023-03-03T06:03:28;99840;;;-2.41;100
44127;BME280;29786;50.798;7.302;2023-03-03T06:09:39;99840;;;-2.47;100
44127;BME280;29786;50.798;7.302;2023-03-03T06:14:36;99850;;;-2.43;100
44127;BME280;29786;50.798;7.302;2023-03-03T06:19:32;99830;;;-2.44;100
44127;BME280;29786;50.798;7.302;2023-03-03T06:24:29;99860;;;-2.33;100
44127;BME280;29786;50.798;7.302;2023-03-03T06:29:25;99870;;;-2.13;100
44127;BME280;29786;50.798;7.302;2023-03-03T06:35:36;99870;;;-2.05;100
44127;BME280;29786;50.798;7.302;2023-03-03T06:40:32;99850;;;-1.93;100
44127;BME280;29786;50.798;7.302;2023-03-03T06:45:29;99880;;;-1.33;100
44127;BME280;29786;50.798;7.302;2023-03-03T06:51:40;99900;;;-1.01;100
44127;BME280;29786;50.798;7.302;2023-03-03T06:56:36;99910;;;-0.57;100
44127;BME280;29786;50.798;7.302;2023-03-03T07:01:34;99900;;;-0.58;100
44127;BME280;29786;50.798;7.302;2023-03-03T07:06:29;99920;;;-0.45;100
44127;BME280;29786;50.798;7.302;2023-03-03T07:11:26;99930;;;-0.14;100
44127;BME280;29786;50.798;7.302;2023-03-03T07:17:38;99940;;;-0.11;100
44127;BME280;29786;50.798;7.302;2023-03-03T07:27:30;99940;;;0.08;100
44127;BME280;29786;50.798;7.302;2023-03-03T07:32:33;99940;;;0.49;100
44127;BME280;29786;50.798;7.302;2023-03-03T07:38:37;99950;;;0.48;100
44127;BME280;29786;50.798;7.302;2023-03-03T07:43:35;99950;;;0.49;100
44127;BME280;29786;50.798;7.302;2023-03-03T07:48:32;99960;;;0.61;100
44127;BME280;29786;50.798;7.302;2023-03-03T07:59:45;99960;;;0.74;100
44127;BME280;29786;50.798;7.302;2023-03-03T08:04:38;99970;;;0.8;100
44127;BME280;29786;50.798;7.302;2023-03-03T08:09:40;99970;;;1.09;100
44127;BME280;29786;50.798;7.302;2023-03-03T08:14:28;99970;;;1.05;100
44127;BME280;29786;50.798;7.302;2023-03-03T08:20:41;99970;;;1.42;100
44127;BME280;29786;50.798;7.302;2023-03-03T08:25:34;99980;;;1.3;100
44127;BME280;29786;50.798;7.302;2023-03-03T08:30:30;99980;;;1.37;100
44127;BME280;29786;50.798;7.302;2023-03-03T08:35:27;99990;;;0.92;100
44127;BME280;29786;50.798;7.302;2023-03-03T08:41:38;99980;;;0.88;100
44127;BME280;29786;50.798;7.302;2023-03-03T08:46:34;99980;;;1.39;100
44127;BME280;29786;50.798;7.302;2023-03-03T08:51:31;99990;;;2.01;100
44127;BME280;29786;50.798;7.302;2023-03-03T08:56:27;100000;;;1.64;100
44127;BME280;29786;50.798;7.302;2023-03-03T09:02:38;100000;;;0.87;100
44127;BME280;29786;50.798;7.302;2023-03-03T09:07:34;100010;;;0.71;100
44127;BME280;29786;50.798;7.302;2023-03-03T09:12:33;100010;;;0.57;100
44127;BME280;29786;50.798;7.302;2023-03-03T09:17:29;100020;;;0.26;100
44127;BME280;29786;50.798;7.302;2023-03-03T09:23:40;100020;;;0.51;100
44127;BME280;29786;50.798;7.302;2023-03-03T09:28:34;100030;;;1.07;100
44127;BME280;29786;50.798;7.302;2023-03-03T09:33:46;100020;;;0.56;100
44127;BME280;29786;50.798;7.302;2023-03-03T09:38:29;100030;;;0.61;100
44127;BME280;29786;50.798;7.302;2023-03-03T09:45:48;100030;;;1.17;100
44127;BME280;29786;50.798;7.302;2023-03-03T09:49:56;100030;;;1.16;100
44127;BME280;29786;50.798;7.302;2023-03-03T09:54:38;100040;;;1.19;100
44127;BME280;29786;50.798;7.302;2023-03-03T09:59:32;100040;;;1.67;100
44127;BME280;29786;50.798;7.302;2023-03-03T10:05:40;100050;;;1.19;100
44127;BME280;29786;50.798;7.302;2023-03-03T10:10:45;100050;;;1.25;100
44127;BME280;29786;50.798;7.302;2023-03-03T10:20:46;100060;;;2.03;100
44127;BME280;29786;50.798;7.302;2023-03-03T10:27:18;100060;;;2.27;100
44127;BME280;29786;50.798;7.302;2023-03-03T10:36:34;100060;;;2.99;100
44127;BME280;29786;50.798;7.302;2023-03-03T10:47:43;100060;;;3.36;100
44127;BME280;29786;50.798;7.302;2023-03-03T10:52:38;100050;;;3.42;100
44127;BME280;29786;50.798;7.302;2023-03-03T10:57:40;100040;;;3.05;100
44127;BME280;29786;50.798;7.302;2023-03-03T11:02:33;100060;;;3.21;100
44127;BME280;29786;50.798;7.302;2023-03-03T11:13:40;100060;;;3.61;100
44127;BME280;29786;50.798;7.302;2023-03-03T11:28:29;100070;;;3.93;100
44127;BME280;29786;50.798;7.302;2023-03-03T11:34:43;100060;;;3.72;100
44127;BME280;29786;50.798;7.302;2023-03-03T11:39:33;100030;;;3.49;100
44127;BME280;29786;50.798;7.302;2023-03-03T11:44:31;100060;;;4.59;99.52
44127;BME280;29786;50.798;7.302;2023-03-03T11:50:42;100040;;;4.88;98.02
44127;BME280;29786;50.798;7.302;2023-03-03T11:55:37;100030;;;7.26;73.55
44127;BME280;29786;50.798;7.302;2023-03-03T12:00:36;100030;;;7.07;74.66
44127;BME280;29786;50.798;7.302;2023-03-03T12:05:33;100020;;;6.91;73.43
44127;BME280;29786;50.798;7.302;2023-03-03T12:10:27;100020;;;7.02;74.29
44127;BME280;29786;50.798;7.302;2023-03-03T12:16:48;100010;;;6.19;79.81
44127;BME280;29786;50.798;7.302;2023-03-03T12:21:41;100000;;;7.45;68.74
44127;BME280;29786;50.798;7.302;2023-03-03T12:26:33;100000;;;8.17;62.75
44127;BME280;29786;50.798;7.302;2023-03-03T12:38:12;100000;;;8.89;60.04
44127;BME280;29786;50.798;7.302;2023-03-03T12:47:38;99980;;;8.99;59.37
44127;BME280;29786;50.798;7.302;2023-03-03T12:52:45;99980;;;8.52;60.54
44127;BME280;29786;50.798;7.302;2023-03-03T12:58:41;99970;;;8.34;60.5
44127;BME280;29786;50.798;7.302;2023-03-03T13:04:40;99980;;;8.45;58.53
44127;BME280;29786;50.798;7.302;2023-03-03T13:08:33;99980;;;9.26;56.81
44127;BME280;29786;50.798;7.302;2023-03-03T13:13:38;99980;;;9.93;54.24
44127;BME280;29786;50.798;7.302;2023-03-03T13:19:39;99970;;;10.13;53.48
44127;BME280;29786;50.798;7.302;2023-03-03T13:24:37;99960;;;10.69;51.74
44127;BME280;29786;50.798;7.302;2023-03-03T13:29:36;99960;;;9.5;54.79
44127;BME280;29786;50.798;7.302;2023-03-03T13:34:31;99960;;;10.17;52.73
44127;BME280;29786;50.798;7.302;2023-03-03T13:40:47;99960;;;11.09;50.58
44127;BME280;29786;50.798;7.302;2023-03-03T13:46:10;99950;;;11.78;48.44
44127;BME280;29786;50.798;7.302;2023-03-03T13:50:48;99950;;;11.87;48.3
44127;BME280;29786;50.798;7.302;2023-03-03T14:06:34;99950;;;12.58;46.72
44127;BME280;29786;50.798;7.302;2023-03-03T14:11:41;99940;;;12.65;45.84
44127;BME280;29786;50.798;7.302;2023-03-03T14:16:47;99930;;;12.43;45.54
44127;BME280;29786;50.798;7.302;2023-03-03T14:22:50;99930;;;13.39;43.92
44127;BME280;29786;50.798;7.302;2023-03-03T14:27:38;99930;;;12.52;45.45
44127;BME280;29786;50.798;7.302;2023-03-03T14:32:31;99920;;;11.32;48.46
44127;BME280;29786;50.798;7.302;2023-03-03T14:37:29;99920;;;14;43.73
44127;BME280;29786;50.798;7.302;2023-03-03T14:43:39;99920;;;13.96;42.6
44127;BME280;29786;50.798;7.302;2023-03-03T14:48:35;99920;;;12.19;45.8
44127;BME280;29786;50.798;7.302;2023-03-03T14:53:33;99910;;;11.47;48.12
44127;BME280;29786;50.798;7.302;2023-03-03T14:58:43;99910;;;10.7;49.01
44127;BME280;29786;50.798;7.302;2023-03-03T15:04:39;99900;;;10.54;50.33
44127;BME280;29786;50.798;7.302;2023-03-03T15:09:36;99900;;;10.87;49.5
44127;BME280;29786;50.798;7.302;2023-03-03T15:14:36;99900;;;10.04;51.86
44127;BME280;29786;50.798;7.302;2023-03-03T15:20:02;99900;;;11.57;48.17
44127;BME280;29786;50.798;7.302;2023-03-03T15:25:51;99900;;;10.61;49.98
44127;BME280;29786;50.798;7.302;2023-03-03T15:35:35;99910;;;9.18;53.79
44127;BME280;29786;50.798;7.302;2023-03-03T15:40:34;99900;;;8.96;54.47
44127;BME280;29786;50.798;7.302;2023-03-03T15:46:44;99910;;;8.77;55.94
44127;BME280;29786;50.798;7.302;2023-03-03T15:51:46;99900;;;8;60.52
44127;BME280;29786;50.798;7.302;2023-03-03T15:57:11;99880;;;8.43;57.9
44127;BME280;29786;50.798;7.302;2023-03-03T16:01:34;99900;;;8.08;59.51
44127;BME280;29786;50.798;7.302;2023-03-03T16:07:44;99900;;;7.83;61.17
44127;BME280;29786;50.798;7.302;2023-03-03T16:13:17;99910;;;7.31;64.82
44127;BME280;29786;50.798;7.302;2023-03-03T16:17:38;99900;;;7;67.99
44127;BME280;29786;50.798;7.302;2023-03-03T16:22:33;99920;;;7.27;67.92
44127;BME280;29786;50.798;7.302;2023-03-03T16:27:31;99920;;;6.46;71.39
44127;BME280;29786;50.798;7.302;2023-03-03T16:33:43;99930;;;5.73;79.38
44127;BME280;29786;50.798;7.302;2023-03-03T16:38:37;99920;;;4.79;88.37
44127;BME280;29786;50.798;7.302;2023-03-03T16:44:03;99940;;;4.62;92.56
44127;BME280;29786;50.798;7.302;2023-03-03T16:48:30;99950;;;4.41;95.49
44127;BME280;29786;50.798;7.302;2023-03-03T16:55:47;99960;;;3.34;100
44127;BME280;29786;50.798;7.302;2023-03-03T16:59:42;99960;;;3.11;100
44127;BME280;29786;50.798;7.302;2023-03-03T17:04:46;99970;;;2.89;100
44127;BME280;29786;50.798;7.302;2023-03-03T17:09:45;99960;;;2.41;100
44127;BME280;29786;50.798;7.302;2023-03-03T17:20:36;99980;;;1.86;100
44127;BME280;29786;50.798;7.302;2023-03-03T17:30:34;99980;;;1.58;100
44127;BME280;29786;50.798;7.302;2023-03-03T17:36:41;99990;;;1.43;100
44127;BME280;29786;50.798;7.302;2023-03-03T17:41:36;99990;;;1.31;100
44127;BME280;29786;50.798;7.302;2023-03-03T17:46:47;99990;;;1.22;100
44127;BME280;29786;50.798;7.302;2023-03-03T17:52:02;100000;;;1.08;100
44127;BME280;29786;50.798;7.302;2023-03-03T17:57:44;100010;;;0.95;100
44127;BME280;29786;50.798;7.302;2023-03-03T18:02:39;100010;;;0.93;100
44127;BME280;29786;50.798;7.302;2023-03-03T18:07:39;100020;;;0.85;100
44127;BME280;29786;50.798;7.302;2023-03-03T18:12:35;100030;;;0.8;100
44127;BME280;29786;50.798;7.302;2023-03-03T18:16:12;100030;;;0.68;100
44127;BME280;29786;50.798;7.302;2023-03-03T18:18:48;100030;;;0.6;100
44127;BME280;29786;50.798;7.302;2023-03-03T18:23:35;100030;;;0.47;100
44127;BME280;29786;50.798;7.302;2023-03-03T18:28:43;100030;;;0.36;100
44127;BME280;29786;50.798;7.302;2023-03-03T18:33:43;100030;;;0.3;100
44127;BME280;29786;50.798;7.302;2023-03-03T18:39:39;100040;;;0.26;100
44127;BME280;29786;50.798;7.302;2023-03-03T18:44:34;100040;;;0.24;100
44127;BME280;29786;50.798;7.302;2023-03-03T18:49:48;100050;;;0.23;100
44127;BME280;29786;50.798;7.302;2023-03-03T18:54:27;100050;;;0.18;100
44127;BME280;29786;50.798;7.302;2023-03-03T19:00:55;100050;;;0.14;100
44127;BME280;29786;50.798;7.302;2023-03-03T19:05:36;100050;;;0.06;100
44127;BME280;29786;50.798;7.302;2023-03-03T19:10:56;100050;;;0.04;100
44127;BME280;29786;50.798;7.302;2023-03-03T19:21:39;100070;;;-0.09;100
44127;BME280;29786;50.798;7.302;2023-03-03T19:26:39;100070;;;0.01;100
44127;BME280;29786;50.798;7.302;2023-03-03T19:31:41;100070;;;-0.12;100
44127;BME280;29786;50.798;7.302;2023-03-03T19:36:34;100070;;;-0.09;100
44127;BME280;29786;50.798;7.302;2023-03-03T19:42:42;100080;;;-0.17;100
44127;BME280;29786;50.798;7.302;2023-03-03T19:47:38;100080;;;-0.16;100
44127;BME280;29786;50.798;7.302;2023-03-03T19:52:48;100080;;;-0.2;100
44127;BME280;29786;50.798;7.302;2023-03-03T20:04:50;100080;;;-0.41;100
44127;BME280;29786;50.798;7.302;2023-03-03T20:08:40;100080;;;-0.34;100
44127;BME280;29786;50.798;7.302;2023-03-03T20:14:07;100080;;;-0.41;100
44127;BME280;29786;50.798;7.302;2023-03-03T20:18:40;100080;;;-0.52;100
44127;BME280;29786;50.798;7.302;2023-03-03T20:23:30;100080;;;-0.36;100
44127;BME280;29786;50.798;7.302;2023-03-03T20:29:39;100080;;;-0.47;100
44127;BME280;29786;50.798;7.302;2023-03-03T20:45:45;100080;;;-0.61;100
44127;BME280;29786;50.798;7.302;2023-03-03T20:50:43;100080;;;-0.64;100
44127;BME280;29786;50.798;7.302;2023-03-03T20:55:47;100060;;;-0.76;100
44127;BME280;29786;50.798;7.302;2023-03-03T21:00:31;100080;;;-0.68;100
44127;BME280;29786;50.798;7.302;2023-03-03T21:05:25;100080;;;-0.72;100
44127;BME280;29786;50.798;7.302;2023-03-03T21:11:39;100080;;;-0.78;100
44127;BME280;29786;50.798;7.302;2023-03-03T21:16:33;100070;;;-0.74;100
44127;BME280;29786;50.798;7.302;2023-03-03T21:21:30;100090;;;-0.58;100
44127;BME280;29786;50.798;7.302;2023-03-03T21:27:00;100090;;;-0.63;100
44127;BME280;29786;50.798;7.302;2023-03-03T21:32:38;100090;;;-0.58;100
44127;BME280;29786;50.798;7.302;2023-03-03T21:42:39;100090;;;-0.41;100
44127;BME280;29786;50.798;7.302;2023-03-03T21:47:26;100090;;;-0.32;100
44127;BME280;29786;50.798;7.302;2023-03-03T21:53:37;100080;;;-0.38;100
44127;BME280;29786;50.798;7.302;2023-03-03T21:58:33;100080;;;-0.3;100
44127;BME280;29786;50.798;7.302;2023-03-03T22:03:30;100080;;;-0.21;100
44127;BME280;29786;50.798;7.302;2023-03-03T22:08:26;100080;;;-0.2;100
44127;BME280;29786;50.798;7.302;2023-03-03T22:14:37;100090;;;-0.13;100
44127;BME280;29786;50.798;7.302;2023-03-03T22:19:33;100090;;;0.06;100
44127;BME280;29786;50.798;7.302;2023-03-03T22:24:30;100080;;;0.1;100
44127;BME280;29786;50.798;7.302;2023-03-03T22:29:26;100080;;;0.18;100
44127;BME280;29786;50.798;7.302;2023-03-03T22:35:37;100080;;;0.21;100
44127;BME280;29786;50.798;7.302;2023-03-03T22:40:34;100080;;;0.21;100
44127;BME280;29786;50.798;7.302;2023-03-03T22:45:31;100070;;;0.27;100
44127;BME280;29786;50.798;7.302;2023-03-03T22:50:27;100080;;;0.26;100
44127;BME280;29786;50.798;7.302;2023-03-03T22:56:37;100080;;;0.39;100
44127;BME280;29786;50.798;7.302;2023-03-03T23:01:34;100080;;;0.45;100
44127;BME280;29786;50.798;7.302;2023-03-03T23:06:30;100080;;;0.72;100
44127;BME280;29786;50.798;7.302;2023-03-03T23:11:27;100080;;;0.62;100
44127;BME280;29786;50.798;7.302;2023-03-03T23:17:39;100080;;;0.51;100
44127;BME280;29786;50.798;7.302;2023-03-03T23:22:34;100090;;;0.5;100
44127;BME280;29786;50.798;7.302;2023-03-03T23:27:31;100080;;;0.57;100
44127;BME280;29786;50.798;7.302;2023-03-03T23:32:27;100080;;;0.44;100
44127;BME280;29786;50.798;7.302;2023-03-03T23:38:38;100080;;;0.73;100
44127;BME280;29786;50.798;7.302;2023-03-03T23:43:34;100080;;;0.62;100
44127;BME280;29786;50.798;7.302;2023-03-03T23:48:31;100070;;;0.54;100
44127;BME280;29786;50.798;7.302;2023-03-03T23:53:27;100070;;;0.55;100
44127;BME280;29786;50.798;7.302;2023-03-03T23:59:38;100070;;;0.57;100
